createdAt,value
2018-08-31T00:01:04.415Z,16.40
2018-08-31T00:03:44.124Z,16.30
2018-08-31T00:06:23.806Z,16.20
2018-08-31T00:11:05.166Z,16.10
2018-08-31T00:13:33.650Z,16.20
2018-08-31T00:16:02.137Z,16.10
2018-08-31T00:18:30.681Z,15.80
2018-08-31T00:20:59.189Z,16.00
2018-08-31T00:23:43.450Z,16.00
2018-08-31T00:28:26.605Z,15.80
2018-08-31T00:31:06.352Z,15.90
2018-08-31T00:33:45.183Z,15.80
2018-08-31T00:36:42.829Z,15.60
2018-08-31T00:39:24.418Z,15.60
2018-08-31T00:42:10.406Z,15.60
2018-08-31T00:44:51.013Z,15.90
2018-08-31T00:47:19.634Z,15.80
2018-08-31T00:49:48.175Z,15.70
2018-08-31T00:52:16.704Z,15.90
2018-08-31T00:54:45.135Z,15.90
2018-08-31T00:57:13.648Z,15.90
2018-08-31T00:59:42.200Z,15.90
2018-08-31T01:02:10.858Z,15.90
2018-08-31T01:04:39.375Z,16.00
2018-08-31T01:07:08.265Z,15.70
2018-08-31T01:09:36.737Z,15.70
2018-08-31T01:12:05.258Z,15.50
2018-08-31T01:14:33.732Z,15.30
2018-08-31T01:17:02.329Z,15.50
2018-08-31T01:19:30.810Z,15.60
2018-08-31T01:21:59.366Z,15.60
2018-08-31T01:24:28.142Z,15.70
2018-08-31T01:26:56.665Z,15.60
2018-08-31T01:29:25.170Z,15.60
2018-08-31T01:31:54.026Z,15.60
2018-08-31T01:34:22.522Z,15.60
2018-08-31T01:36:51.023Z,15.00
2018-08-31T01:39:19.547Z,15.00
2018-08-31T01:41:48.059Z,15.40
2018-08-31T01:44:16.561Z,15.30
2018-08-31T01:46:45.054Z,15.40
2018-08-31T01:49:13.622Z,15.50
2018-08-31T01:51:42.144Z,15.60
2018-08-31T01:54:14.034Z,15.50
2018-08-31T01:56:42.634Z,15.40
2018-08-31T01:59:11.104Z,15.40
2018-08-31T02:01:39.534Z,15.20
2018-08-31T02:04:08.082Z,15.00
2018-08-31T02:06:36.666Z,14.90
2018-08-31T02:09:14.394Z,14.70
2018-08-31T02:11:42.937Z,14.60
2018-08-31T02:14:11.499Z,14.60
2018-08-31T02:16:39.990Z,14.60
2018-08-31T02:19:08.485Z,14.60
2018-08-31T02:21:37.050Z,14.50
2018-08-31T02:24:05.661Z,14.20
2018-08-31T02:26:34.230Z,14.50
2018-08-31T02:29:03.067Z,14.60
2018-08-31T02:31:32.413Z,14.80
2018-08-31T02:34:02.031Z,14.70
2018-08-31T02:36:30.565Z,14.60
2018-08-31T02:38:59.041Z,14.40
2018-08-31T02:41:27.530Z,14.50
2018-08-31T02:43:56.169Z,14.60
2018-08-31T02:46:24.781Z,14.30
2018-08-31T02:48:53.431Z,14.20
2018-08-31T02:51:22.010Z,14.10
2018-08-31T02:53:50.558Z,14.00
2018-08-31T02:56:19.091Z,14.00
2018-08-31T02:58:47.590Z,13.90
2018-08-31T03:01:16.052Z,14.00
2018-08-31T03:03:44.624Z,14.40
2018-08-31T03:06:13.086Z,14.10
2018-08-31T03:08:41.574Z,14.40
2018-08-31T03:11:10.098Z,14.60
2018-08-31T03:13:38.677Z,14.60
2018-08-31T03:16:07.244Z,14.10
2018-08-31T03:18:35.834Z,13.90
2018-08-31T03:21:04.337Z,14.00
2018-08-31T03:23:32.790Z,14.30
2018-08-31T03:26:01.353Z,14.10
2018-08-31T03:28:32.819Z,13.90
2018-08-31T03:31:01.332Z,13.60
2018-08-31T03:33:29.821Z,13.50
2018-08-31T03:35:58.383Z,13.60
2018-08-31T03:38:26.898Z,13.90
2018-08-31T03:40:55.433Z,13.90
2018-08-31T03:43:23.979Z,14.00
2018-08-31T03:45:52.471Z,13.90
2018-08-31T03:48:20.944Z,13.80
2018-08-31T03:50:49.405Z,14.00
2018-08-31T03:53:17.887Z,13.70
2018-08-31T03:55:47.139Z,13.70
2018-08-31T03:58:15.625Z,13.60
2018-08-31T04:00:44.164Z,13.90
2018-08-31T04:03:12.846Z,14.00
2018-08-31T04:05:41.327Z,13.80
2018-08-31T04:08:09.843Z,13.70
2018-08-31T04:10:38.396Z,13.60
2018-08-31T04:13:06.912Z,13.50
2018-08-31T04:15:35.471Z,13.50
2018-08-31T04:20:40.060Z,13.40
2018-08-31T04:23:08.490Z,13.50
2018-08-31T04:25:36.937Z,13.50
2018-08-31T04:28:05.529Z,13.80
2018-08-31T04:30:34.195Z,13.70
2018-08-31T04:33:02.754Z,13.60
2018-08-31T04:35:31.258Z,13.60
2018-08-31T04:37:59.785Z,13.60
2018-08-31T04:40:28.389Z,13.80
2018-08-31T04:42:56.891Z,13.60
2018-08-31T04:45:25.418Z,13.80
2018-08-31T04:47:54.062Z,13.80
2018-08-31T04:50:22.729Z,13.60
2018-08-31T04:52:51.147Z,13.40
2018-08-31T04:55:19.704Z,13.10
2018-08-31T04:57:48.288Z,13.10
2018-08-31T05:00:16.825Z,13.00
2018-08-31T05:02:45.291Z,13.10
2018-08-31T05:05:14.474Z,13.10
2018-08-31T05:07:42.963Z,13.40
2018-08-31T05:10:11.470Z,13.50
2018-08-31T05:12:40.022Z,13.30
2018-08-31T05:15:08.599Z,13.20
2018-08-31T05:17:37.108Z,13.30
2018-08-31T05:20:05.680Z,13.60
2018-08-31T05:22:34.192Z,13.80
2018-08-31T05:25:02.684Z,13.60
2018-08-31T05:27:31.147Z,13.40
2018-08-31T05:29:59.804Z,13.70
2018-08-31T05:32:28.307Z,13.80
2018-08-31T05:34:56.994Z,13.60
2018-08-31T05:37:25.646Z,13.60
2018-08-31T05:39:54.129Z,13.80
2018-08-31T05:42:22.874Z,13.60
2018-08-31T05:44:51.465Z,13.60
2018-08-31T05:47:20.046Z,13.50
2018-08-31T05:49:48.566Z,13.40
2018-08-31T05:52:17.113Z,13.30
2018-08-31T05:54:45.605Z,13.30
2018-08-31T05:57:14.202Z,13.30
2018-08-31T05:59:42.685Z,13.30
2018-08-31T06:02:11.269Z,13.20
2018-08-31T06:04:39.709Z,13.20
2018-08-31T06:07:08.400Z,13.20
2018-08-31T06:09:36.912Z,13.20
2018-08-31T06:12:05.494Z,13.20
2018-08-31T06:14:34.164Z,13.20
2018-08-31T06:17:02.693Z,13.30
2018-08-31T06:19:31.228Z,13.30
2018-08-31T06:21:59.923Z,13.40
2018-08-31T06:24:28.603Z,13.40
2018-08-31T06:26:57.058Z,13.40
2018-08-31T06:29:25.548Z,13.50
2018-08-31T06:31:54.241Z,13.50
2018-08-31T06:34:22.924Z,13.60
2018-08-31T06:36:51.592Z,13.50
2018-08-31T06:39:20.311Z,13.50
2018-08-31T06:41:49.023Z,13.50
2018-08-31T06:44:17.475Z,13.50
2018-08-31T06:46:46.325Z,13.50
2018-08-31T06:49:15.006Z,13.60
2018-08-31T06:51:43.653Z,13.60
2018-08-31T06:54:15.497Z,13.60
2018-08-31T06:56:44.002Z,13.50
2018-08-31T06:59:12.495Z,13.50
2018-08-31T07:01:40.984Z,13.50
2018-08-31T07:04:09.606Z,13.60
2018-08-31T07:06:38.154Z,13.60
2018-08-31T07:09:13.602Z,13.80
2018-08-31T07:11:42.138Z,13.70
2018-08-31T07:14:10.595Z,13.70
2018-08-31T07:16:39.177Z,13.60
2018-08-31T07:19:08.101Z,14.00
2018-08-31T07:21:36.645Z,14.10
2018-08-31T07:24:05.211Z,14.20
2018-08-31T07:26:33.843Z,14.20
2018-08-31T07:29:02.424Z,14.20
2018-08-31T07:31:30.962Z,14.20
2018-08-31T07:33:59.454Z,14.20
2018-08-31T07:36:28.118Z,14.50
2018-08-31T07:38:56.640Z,14.40
2018-08-31T07:41:25.191Z,14.30
2018-08-31T07:43:54.127Z,14.30
2018-08-31T07:46:22.604Z,14.30
2018-08-31T07:48:52.473Z,14.30
2018-08-31T07:51:21.137Z,14.50
2018-08-31T07:53:49.883Z,14.50
2018-08-31T07:56:19.392Z,14.70
2018-08-31T07:58:48.138Z,14.80
2018-08-31T08:01:16.705Z,14.80
2018-08-31T08:03:45.260Z,14.90
2018-08-31T08:06:13.739Z,15.10
2018-08-31T08:08:42.410Z,15.10
2018-08-31T08:11:10.916Z,15.00
2018-08-31T08:13:39.575Z,15.10
2018-08-31T08:16:08.156Z,15.20
2018-08-31T08:18:36.657Z,15.20
2018-08-31T08:21:05.239Z,15.30
2018-08-31T08:23:33.709Z,15.50
2018-08-31T08:26:02.305Z,15.50
2018-08-31T08:28:31.089Z,15.50
2018-08-31T08:30:59.588Z,15.50
2018-08-31T08:33:28.288Z,15.50
2018-08-31T08:35:56.895Z,15.50
2018-08-31T08:38:25.453Z,15.60
2018-08-31T08:40:54.079Z,15.60
2018-08-31T08:43:22.779Z,15.50
2018-08-31T08:45:51.347Z,15.60
2018-08-31T08:48:20.073Z,15.60
2018-08-31T08:50:48.549Z,15.70
2018-08-31T08:53:17.300Z,15.90
2018-08-31T08:55:45.806Z,16.00
2018-08-31T08:58:14.350Z,16.10
2018-08-31T09:00:42.855Z,16.20
2018-08-31T09:03:11.461Z,16.20
2018-08-31T09:05:40.101Z,16.30
2018-08-31T09:08:08.629Z,16.40
2018-08-31T09:10:37.723Z,16.40
2018-08-31T09:13:06.364Z,16.40
2018-08-31T09:15:34.864Z,16.60
2018-08-31T09:18:06.656Z,16.50
2018-08-31T09:20:35.308Z,16.50
2018-08-31T09:23:03.854Z,16.50
2018-08-31T09:25:32.838Z,16.50
2018-08-31T09:28:01.327Z,16.60
2018-08-31T09:30:36.001Z,16.70
2018-08-31T09:33:04.689Z,16.80
2018-08-31T09:35:33.194Z,16.90
2018-08-31T09:38:02.165Z,16.90
2018-08-31T09:40:30.657Z,17.00
2018-08-31T09:42:59.172Z,17.00
2018-08-31T09:45:27.794Z,17.10
2018-08-31T09:47:56.316Z,17.10
2018-08-31T09:50:24.812Z,17.10
2018-08-31T09:52:53.498Z,17.20
2018-08-31T09:55:22.339Z,17.30
2018-08-31T09:57:51.012Z,17.40
2018-08-31T10:00:24.977Z,17.50
2018-08-31T10:02:58.916Z,17.50
2018-08-31T10:05:27.541Z,17.60
2018-08-31T10:07:56.393Z,17.50
2018-08-31T10:10:25.314Z,17.50
2018-08-31T10:12:53.860Z,17.50
2018-08-31T10:15:22.893Z,17.60
2018-08-31T10:17:51.511Z,17.70
2018-08-31T10:20:20.458Z,17.80
2018-08-31T10:22:49.090Z,17.70
2018-08-31T10:25:17.668Z,17.70
2018-08-31T10:27:46.327Z,17.80
2018-08-31T10:30:15.278Z,17.80
2018-08-31T10:32:43.971Z,17.90
2018-08-31T10:35:12.584Z,18.00
2018-08-31T10:37:41.305Z,18.30
2018-08-31T10:40:09.943Z,18.50
2018-08-31T10:42:38.850Z,18.70
2018-08-31T10:45:13.870Z,19.00
2018-08-31T10:47:42.640Z,19.80
2018-08-31T10:50:11.374Z,19.70
2018-08-31T10:52:39.868Z,19.40
2018-08-31T10:55:08.610Z,19.50
2018-08-31T10:57:37.410Z,19.60
2018-08-31T11:00:15.901Z,19.30
2018-08-31T11:02:45.679Z,19.30
2018-08-31T11:05:14.353Z,19.70
2018-08-31T11:07:42.914Z,20.40
2018-08-31T11:10:11.773Z,20.50
2018-08-31T11:12:40.369Z,20.60
2018-08-31T11:15:08.992Z,20.90
2018-08-31T11:17:38.408Z,20.40
2018-08-31T11:20:06.957Z,20.50
2018-08-31T11:22:35.374Z,20.30
2018-08-31T11:25:04.102Z,19.90
2018-08-31T11:27:32.613Z,20.00
2018-08-31T11:30:01.075Z,20.70
2018-08-31T11:32:30.027Z,20.60
2018-08-31T11:34:58.657Z,20.60
2018-08-31T11:37:27.200Z,20.70
2018-08-31T11:39:55.766Z,20.70
2018-08-31T11:42:24.290Z,20.40
2018-08-31T11:44:52.950Z,20.70
2018-08-31T11:47:21.442Z,20.50
2018-08-31T11:49:50.004Z,20.50
2018-08-31T11:52:18.707Z,20.00
2018-08-31T11:54:47.228Z,19.90
2018-08-31T11:57:15.723Z,20.00
2018-08-31T11:59:44.412Z,19.90
2018-08-31T12:02:12.937Z,19.90
2018-08-31T12:04:41.641Z,19.90
2018-08-31T12:07:10.139Z,19.80
2018-08-31T12:09:39.305Z,19.90
2018-08-31T12:12:07.866Z,20.30
2018-08-31T12:14:36.678Z,20.90
2018-08-31T12:17:05.233Z,21.60
2018-08-31T12:19:33.967Z,21.50
2018-08-31T12:22:02.560Z,20.70
2018-08-31T12:24:31.198Z,20.40
2018-08-31T12:26:59.729Z,20.20
2018-08-31T12:29:28.197Z,20.00
2018-08-31T12:31:56.677Z,19.90
2018-08-31T12:34:25.146Z,20.10
2018-08-31T12:36:53.710Z,20.20
2018-08-31T12:39:22.415Z,20.40
2018-08-31T12:41:51.043Z,20.20
2018-08-31T12:44:19.626Z,19.90
2018-08-31T12:46:48.135Z,19.80
2018-08-31T12:49:16.693Z,19.70
2018-08-31T12:51:45.319Z,19.70
2018-08-31T12:54:16.664Z,20.20
2018-08-31T12:56:45.341Z,20.30
2018-08-31T12:59:13.874Z,20.10
2018-08-31T13:01:42.409Z,20.00
2018-08-31T13:04:11.121Z,20.10
2018-08-31T13:06:39.925Z,20.40
2018-08-31T13:09:14.328Z,20.80
2018-08-31T13:11:42.834Z,21.30
2018-08-31T13:14:11.475Z,21.20
2018-08-31T13:16:39.990Z,20.70
2018-08-31T13:19:08.533Z,20.40
2018-08-31T13:21:37.185Z,20.40
2018-08-31T13:24:05.783Z,20.50
2018-08-31T13:26:34.299Z,20.90
2018-08-31T13:29:02.791Z,20.90
2018-08-31T13:31:31.317Z,21.00
2018-08-31T13:33:59.882Z,21.10
2018-08-31T13:36:28.413Z,21.00
2018-08-31T13:38:56.956Z,21.00
2018-08-31T13:41:25.459Z,21.20
2018-08-31T13:43:53.996Z,21.60
2018-08-31T13:46:22.471Z,21.80
2018-08-31T13:48:51.196Z,21.30
2018-08-31T13:51:19.738Z,20.90
2018-08-31T13:53:48.404Z,20.60
2018-08-31T13:56:17.124Z,20.50
2018-08-31T13:58:45.668Z,20.40
2018-08-31T14:01:14.185Z,20.50
2018-08-31T14:03:42.732Z,20.60
2018-08-31T14:06:11.521Z,20.70
2018-08-31T14:08:39.946Z,20.70
2018-08-31T14:11:08.419Z,20.70
2018-08-31T14:13:37.105Z,20.80
2018-08-31T14:16:05.781Z,20.60
2018-08-31T14:18:34.386Z,20.70
2018-08-31T14:21:02.905Z,20.60
2018-08-31T14:23:31.395Z,20.80
2018-08-31T14:25:59.914Z,20.80
2018-08-31T14:28:28.414Z,20.50
2018-08-31T14:30:57.187Z,20.40
2018-08-31T14:33:26.056Z,20.50
2018-08-31T14:35:54.556Z,20.50
2018-08-31T14:38:23.186Z,20.60
2018-08-31T14:40:52.087Z,20.60
2018-08-31T14:43:20.965Z,20.80
2018-08-31T14:45:49.426Z,20.90
2018-08-31T14:48:18.270Z,20.80
2018-08-31T14:50:46.971Z,20.80
2018-08-31T14:53:15.861Z,20.90
2018-08-31T14:55:44.409Z,20.80
2018-08-31T14:58:15.824Z,21.00
2018-08-31T15:00:44.433Z,20.90
2018-08-31T15:03:13.187Z,20.70
2018-08-31T15:05:41.871Z,20.50
2018-08-31T15:08:10.440Z,20.50
2018-08-31T15:10:39.271Z,20.40
2018-08-31T15:13:08.415Z,20.50
2018-08-31T15:15:37.210Z,20.50
2018-08-31T15:18:13.989Z,20.40
2018-08-31T15:20:42.871Z,20.40
2018-08-31T15:23:11.761Z,20.30
2018-08-31T15:25:40.410Z,20.30
2018-08-31T15:28:09.105Z,20.30
2018-08-31T15:30:37.877Z,20.10
2018-08-31T15:33:06.585Z,20.20
2018-08-31T15:35:35.447Z,20.30
2018-08-31T15:38:04.116Z,20.30
2018-08-31T15:40:32.788Z,20.20
2018-08-31T15:43:01.486Z,20.10
2018-08-31T15:45:30.231Z,20.20
2018-08-31T15:47:58.849Z,20.20
2018-08-31T15:50:27.522Z,20.30
2018-08-31T15:52:55.981Z,20.40
2018-08-31T15:55:24.551Z,20.40
2018-08-31T15:57:53.119Z,20.30
2018-08-31T16:00:21.750Z,20.30
2018-08-31T16:02:50.308Z,20.30
2018-08-31T16:05:19.639Z,20.50
2018-08-31T16:07:48.281Z,20.50
2018-08-31T16:10:16.976Z,20.40
2018-08-31T16:12:45.675Z,20.30
2018-08-31T16:15:14.539Z,20.30
2018-08-31T16:17:43.080Z,20.30
2018-08-31T16:20:11.669Z,20.30
2018-08-31T16:22:40.209Z,20.40
2018-08-31T16:25:08.773Z,20.40
2018-08-31T16:27:37.309Z,20.30
2018-08-31T16:30:05.859Z,20.40
2018-08-31T16:32:34.714Z,20.30
2018-08-31T16:35:03.270Z,20.40
2018-08-31T16:37:31.802Z,20.40
2018-08-31T16:40:00.375Z,20.40
2018-08-31T16:42:28.954Z,20.50
2018-08-31T16:44:57.571Z,20.30
2018-08-31T16:47:26.853Z,20.30
2018-08-31T16:49:55.558Z,20.20
2018-08-31T16:52:24.350Z,20.20
2018-08-31T16:54:53.253Z,20.20
2018-08-31T16:57:21.760Z,20.20
2018-08-31T16:59:51.156Z,20.10
2018-08-31T17:02:19.753Z,20.20
2018-08-31T17:04:48.615Z,20.10
2018-08-31T17:07:17.189Z,20.20
2018-08-31T17:09:46.101Z,20.20
2018-08-31T17:12:15.704Z,20.10
2018-08-31T17:14:44.224Z,19.70
2018-08-31T17:17:12.857Z,19.40
2018-08-31T17:19:41.366Z,19.30
2018-08-31T17:22:10.016Z,19.30
2018-08-31T17:24:38.613Z,19.20
2018-08-31T17:27:15.858Z,19.00
2018-08-31T17:29:45.928Z,19.00
2018-08-31T17:32:20.047Z,18.90
2018-08-31T17:34:54.100Z,18.90
2018-08-31T17:37:27.916Z,18.80
2018-08-31T17:39:57.213Z,18.80
2018-08-31T17:42:26.825Z,18.70
2018-08-31T17:44:55.408Z,18.80
2018-08-31T17:47:23.981Z,18.70
2018-08-31T17:49:53.133Z,18.70
2018-08-31T17:52:21.753Z,18.70
2018-08-31T17:54:50.241Z,18.70
2018-08-31T17:57:18.845Z,18.60
2018-08-31T17:59:47.388Z,18.50
2018-08-31T18:02:16.017Z,18.50
2018-08-31T18:04:44.564Z,18.50
2018-08-31T18:07:13.109Z,18.30
2018-08-31T18:09:42.291Z,18.20
2018-08-31T18:12:10.820Z,18.20
2018-08-31T18:14:39.500Z,18.20
2018-08-31T18:17:08.166Z,18.10
2018-08-31T18:19:37.053Z,18.00
2018-08-31T18:22:05.651Z,18.00
2018-08-31T18:24:34.238Z,18.00
2018-08-31T18:27:02.832Z,18.00
2018-08-31T18:29:31.798Z,17.80
2018-08-31T18:32:00.287Z,17.70
2018-08-31T18:34:29.359Z,17.70
2018-08-31T18:36:57.924Z,17.70
2018-08-31T18:39:27.413Z,17.60
2018-08-31T18:41:55.868Z,17.70
2018-08-31T18:44:24.664Z,17.60
2018-08-31T18:46:53.255Z,17.50
2018-08-31T18:49:21.811Z,17.50
2018-08-31T18:51:50.402Z,17.50
2018-08-31T18:54:18.975Z,17.60
2018-08-31T18:56:47.486Z,17.50
2018-08-31T18:59:16.056Z,17.50
2018-08-31T19:01:44.578Z,17.50
2018-08-31T19:04:13.087Z,17.40
2018-08-31T19:06:41.725Z,17.30
2018-08-31T19:09:14.397Z,17.30
2018-08-31T19:11:42.945Z,17.20
2018-08-31T19:14:11.513Z,17.10
2018-08-31T19:16:40.061Z,17.30
2018-08-31T19:19:08.643Z,17.40
2018-08-31T19:21:37.128Z,17.30
2018-08-31T19:24:05.706Z,17.20
2018-08-31T19:26:34.241Z,17.10
2018-08-31T19:29:02.750Z,16.80
2018-08-31T19:31:31.275Z,16.80
2018-08-31T19:33:59.794Z,16.90
2018-08-31T19:36:28.307Z,17.00
2018-08-31T19:38:56.915Z,17.00
2018-08-31T19:41:25.384Z,17.00
2018-08-31T19:43:53.893Z,16.90
2018-08-31T19:46:22.447Z,16.90
2018-08-31T19:48:51.052Z,16.90
2018-08-31T19:51:19.557Z,16.70
2018-08-31T19:53:48.195Z,16.70
2018-08-31T19:56:16.911Z,16.70
2018-08-31T19:58:45.420Z,16.80
2018-08-31T20:01:13.974Z,16.80
2018-08-31T20:03:42.480Z,16.70
2018-08-31T20:06:11.189Z,16.70
2018-08-31T20:08:39.673Z,16.70
2018-08-31T20:11:08.238Z,16.60
2018-08-31T20:13:36.805Z,16.30
2018-08-31T20:16:05.379Z,16.20
2018-08-31T20:18:34.121Z,16.10
2018-08-31T20:21:02.593Z,15.90
2018-08-31T20:23:31.079Z,15.90
2018-08-31T20:26:00.485Z,15.90
2018-08-31T20:28:29.071Z,16.00
2018-08-31T20:30:57.709Z,15.80
2018-08-31T20:33:26.182Z,15.50
2018-08-31T20:35:54.682Z,15.50
2018-08-31T20:38:23.170Z,15.50
2018-08-31T20:40:51.689Z,15.60
2018-08-31T20:43:20.317Z,15.70
2018-08-31T20:45:48.689Z,15.90
2018-08-31T20:48:17.191Z,15.90
2018-08-31T20:50:45.778Z,15.60
2018-08-31T20:53:14.334Z,15.50
2018-08-31T20:55:42.941Z,15.60
2018-08-31T20:58:12.194Z,15.60
2018-08-31T21:00:41.750Z,15.50
2018-08-31T21:03:11.465Z,15.50
2018-08-31T21:05:39.953Z,15.40
2018-08-31T21:08:08.487Z,15.30
2018-08-31T21:10:36.977Z,15.40
2018-08-31T21:13:05.480Z,15.40
2018-08-31T21:15:33.966Z,15.40
2018-08-31T21:18:02.433Z,15.30
2018-08-31T21:20:30.975Z,15.40
2018-08-31T21:22:59.511Z,15.50
2018-08-31T21:25:28.046Z,15.60
2018-08-31T21:27:56.528Z,15.40
2018-08-31T21:30:25.010Z,15.20
2018-08-31T21:32:53.493Z,15.20
2018-08-31T21:35:22.029Z,15.10
2018-08-31T21:37:51.220Z,14.90
2018-08-31T21:40:19.767Z,15.00
2018-08-31T21:42:48.291Z,14.90
2018-08-31T21:45:16.803Z,14.80
2018-08-31T21:47:45.308Z,15.00
2018-08-31T21:50:13.890Z,15.00
2018-08-31T21:52:42.466Z,14.80
2018-08-31T21:55:11.120Z,14.70
2018-08-31T21:57:39.654Z,14.80
2018-08-31T22:00:16.008Z,14.70
2018-08-31T22:02:44.569Z,14.80
2018-08-31T22:05:13.203Z,14.80
2018-08-31T22:07:41.679Z,14.80
2018-08-31T22:10:10.257Z,14.80
2018-08-31T22:12:38.761Z,14.60
2018-08-31T22:15:12.050Z,14.50
2018-08-31T22:17:40.534Z,14.40
2018-08-31T22:20:09.013Z,14.60
2018-08-31T22:22:37.537Z,14.70
2018-08-31T22:25:12.567Z,14.60
2018-08-31T22:27:41.173Z,14.50
2018-08-31T22:30:09.654Z,14.40
2018-08-31T22:32:38.130Z,14.40
2018-08-31T22:35:06.646Z,14.20
2018-08-31T22:37:35.191Z,14.20
2018-08-31T22:40:03.730Z,14.40
2018-08-31T22:42:32.228Z,14.70
2018-08-31T22:45:00.687Z,14.50
2018-08-31T22:47:29.124Z,14.40
2018-08-31T22:49:57.684Z,14.40
2018-08-31T22:52:26.194Z,14.40
2018-08-31T22:54:54.687Z,14.50
2018-08-31T22:57:23.258Z,14.50
2018-08-31T22:59:51.721Z,14.50
2018-08-31T23:02:20.230Z,14.30
2018-08-31T23:04:48.693Z,14.40
2018-08-31T23:07:22.429Z,14.40
2018-08-31T23:09:50.903Z,14.70
2018-08-31T23:12:19.422Z,14.80
2018-08-31T23:14:47.992Z,14.40
2018-08-31T23:17:16.581Z,14.10
2018-08-31T23:19:45.067Z,14.00
2018-08-31T23:22:13.579Z,13.80
2018-08-31T23:24:42.153Z,13.60
2018-08-31T23:27:13.640Z,14.00
2018-08-31T23:29:42.214Z,13.90
2018-08-31T23:32:10.757Z,13.90
2018-08-31T23:34:39.276Z,13.90
2018-08-31T23:37:07.750Z,14.00
2018-08-31T23:39:36.280Z,14.00
2018-08-31T23:42:04.723Z,13.90
2018-08-31T23:44:33.225Z,13.80
2018-08-31T23:47:01.654Z,13.70
2018-08-31T23:49:30.180Z,13.50
2018-08-31T23:51:58.658Z,13.40
2018-08-31T23:54:27.196Z,13.30
2018-08-31T23:56:55.692Z,13.10
2018-08-31T23:59:24.130Z,13.10
